Time;durP1;ratioP1;P1;durP2;ratioP2;P2;SDS_P1;SDS_P2;PMS_P1;PMS_P2;Temp;Humidity;BMP_temperature;BMP_pressure;BME280_temperature;BME280_humidity;BME280_pressure;Samples;Min_cycle;Max_cycle;Signal;HPM_P1;HPM_P2
2023/01/03 00:02:25;;;;;;;1.90;1.80;;;15.90;54.30;;;;;;5015647;28;20394;-58
2023/01/03 00:04:50;;;;;;;1.83;1.63;;;15.80;54.40;;;;;;5011155;28;20225;-58
2023/01/03 00:07:32;;;;;;;2.00;1.80;;;15.70;54.40;;;;;;5019861;28;20196;-58
2023/01/03 00:10:02;;;;;;;1.50;1.40;;;15.70;54.50;;;;;;5025367;28;20254;-57
2023/01/03 00:12:30;;;;;;;1.40;1.30;;;15.70;54.50;;;;;;5022029;28;20884;-57
2023/01/03 00:14:57;;;;;;;1.47;1.37;;;15.60;54.40;;;;;;5019770;28;20443;-58
2023/01/03 00:17:23;;;;;;;1.17;1.07;;;15.30;54.60;;;;;;5015431;28;20440;-57
2023/01/03 00:19:48;;;;;;;1.60;1.50;;;15.10;55.10;;;;;;5015793;28;22689;-57
2023/01/03 00:22:15;;;;;;;3.27;1.20;;;15.10;55.30;;;;;;5013065;28;20465;-57
2023/01/03 00:24:42;;;;;;;1.67;1.57;;;15.20;55.20;;;;;;5016672;28;20740;-57
2023/01/03 00:27:08;;;;;;;1.50;1.40;;;15.30;55.00;;;;;;5012068;28;20788;-58
2023/01/03 00:29:34;;;;;;;2.00;1.40;;;15.30;55.10;;;;;;5016554;28;20448;-57
2023/01/03 00:31:59;;;;;;;1.20;1.10;;;15.30;54.90;;;;;;5016990;28;20440;-57
2023/01/03 00:34:25;;;;;;;2.03;1.60;;;15.40;54.60;;;;;;5020193;28;20540;-57
2023/01/03 00:36:51;;;;;;;1.20;1.10;;;15.50;54.40;;;;;;5017098;28;20228;-57
2023/01/03 00:39:16;;;;;;;1.63;1.30;;;15.50;54.20;;;;;;5020980;28;20186;-57
2023/01/03 00:41:42;;;;;;;1.90;1.53;;;15.50;54.10;;;;;;5016675;28;20658;-58
2023/01/03 00:44:08;;;;;;;1.60;1.50;;;15.50;53.80;;;;;;5026864;28;20189;-57
2023/01/03 00:46:34;;;;;;;1.63;1.30;;;15.50;53.80;;;;;;5013758;28;20228;-57
2023/01/03 00:49:00;;;;;;;1.60;1.50;;;15.60;53.80;;;;;;5016906;28;20309;-57
2023/01/03 00:51:29;;;;;;;1.67;1.40;;;15.60;53.80;;;;;;5021771;28;20450;-57
2023/01/03 00:53:57;;;;;;;1.43;1.33;;;15.60;53.90;;;;;;5024288;28;20431;-58
2023/01/03 00:56:26;;;;;;;1.50;1.00;;;15.60;53.90;;;;;;5014639;28;20850;-57
2023/01/03 00:58:51;;;;;;;1.20;1.10;;;15.60;53.90;;;;;;5017498;28;20441;-57
2023/01/03 01:01:29;;;;;;;1.63;1.17;;;15.70;53.90;;;;;;5011965;28;20437;-57
2023/01/03 01:04:04;;;;;;;1.57;1.47;;;15.70;53.90;;;;;;5015496;28;20653;-57
2023/01/03 01:06:33;;;;;;;1.33;1.17;;;15.70;53.90;;;;;;5014212;28;20506;-57
2023/01/03 01:09:00;;;;;;;1.10;1.07;;;15.70;53.80;;;;;;5017062;28;20580;-57
2023/01/03 01:11:27;;;;;;;1.40;1.30;;;15.70;53.80;;;;;;5016801;28;20443;-57
2023/01/03 01:13:53;;;;;;;3.00;1.60;;;15.60;53.70;;;;;;5011231;28;21936;-57
2023/01/03 01:16:22;;;;;;;3.67;2.97;;;15.60;61.50;;;;;;5029128;28;20456;-57
2023/01/03 01:18:49;;;;;;;6.33;2.70;;;16.00;57.20;;;;;;5018962;28;20834;-57
2023/01/03 01:21:17;;;;;;;4.53;2.30;;;16.10;53.90;;;;;;5039483;28;20806;-57
2023/01/03 01:23:44;;;;;;;1.40;1.30;;;16.00;53.20;;;;;;5020103;28;20476;-57
2023/01/03 01:26:13;;;;;;;1.37;1.27;;;15.90;52.90;;;;;;5022146;28;20515;-57
2023/01/03 01:28:41;;;;;;;1.73;1.20;;;15.80;52.70;;;;;;5018767;28;20896;-56
2023/01/03 01:31:09;;;;;;;1.07;1.00;;;15.80;52.80;;;;;;5016421;28;20460;-57
2023/01/03 01:33:36;;;;;;;1.40;1.10;;;15.80;52.80;;;;;;5016060;28;20436;-57
2023/01/03 01:36:16;;;;;;;1.57;1.10;;;15.80;52.90;;;;;;5015085;28;20821;-56
2023/01/03 01:38:42;;;;;;;1.37;1.17;;;15.80;52.90;;;;;;5013021;28;21013;-56
2023/01/03 01:41:12;;;;;;;1.20;1.10;;;15.70;52.90;;;;;;5017437;28;20440;-56
2023/01/03 01:46:42;;;;;;;2.50;1.40;;;15.70;52.90;;;;;;5021783;28;20856;-56
2023/01/03 01:49:15;;;;;;;1.53;1.30;;;15.70;52.90;;;;;;5023253;28;20448;-57
2023/01/03 01:51:41;;;;;;;2.17;1.20;;;15.70;52.90;;;;;;5014978;28;20993;-57
2023/01/03 01:54:08;;;;;;;1.17;1.07;;;15.70;52.80;;;;;;5020587;28;21968;-57
2023/01/03 01:56:38;;;;;;;1.53;1.37;;;15.60;52.90;;;;;;5014541;28;20436;-57
2023/01/03 01:59:05;;;;;;;1.20;1.10;;;15.60;53.00;;;;;;5020219;28;20448;-57
2023/01/03 02:01:32;;;;;;;2.60;1.40;;;15.60;53.10;;;;;;5018269;28;20441;-57
2023/01/03 02:04:04;;;;;;;1.53;1.00;;;15.50;53.10;;;;;;5017712;28;20467;-57
2023/01/03 02:06:31;;;;;;;1.30;1.10;;;15.50;53.20;;;;;;5015395;28;20499;-56
2023/01/03 02:08:57;;;;;;;1.10;1.10;;;15.50;53.20;;;;;;5012666;28;20443;-57
2023/01/03 02:11:41;;;;;;;1.30;1.20;;;15.40;53.40;;;;;;5022291;28;20539;-57
2023/01/03 02:14:15;;;;;;;1.03;1.03;;;15.40;53.50;;;;;;5024484;28;20447;-57
2023/01/03 02:17:07;;;;;;;2.53;2.33;;;15.40;53.50;;;;;;5027952;28;20534;-57
2023/01/03 02:19:53;;;;;;;1.47;1.30;;;15.30;53.50;;;;;;5020051;28;20513;-57
2023/01/03 02:22:27;;;;;;;1.40;1.30;;;15.30;53.60;;;;;;5014190;28;20566;-57
2023/01/03 02:24:59;;;;;;;1.40;1.30;;;15.20;53.80;;;;;;5027867;28;20486;-57
2023/01/03 02:27:46;;;;;;;1.33;1.23;;;15.30;53.90;;;;;;5022298;28;20451;-57
2023/01/03 02:30:23;;;;;;;1.00;1.00;;;15.20;53.90;;;;;;5021866;28;20451;-57
2023/01/03 02:32:52;;;;;;;1.47;1.37;;;15.20;53.90;;;;;;5016989;28;20599;-57
2023/01/03 02:35:36;;;;;;;1.80;1.70;;;15.20;54.00;;;;;;5017579;28;20448;-57
2023/01/03 02:38:22;;;;;;;1.80;1.70;;;15.20;54.00;;;;;;5018878;28;20455;-57
2023/01/03 02:40:56;;;;;;;2.30;1.80;;;15.10;54.20;;;;;;5022323;28;20447;-57
2023/01/03 02:43:34;;;;;;;2.20;1.97;;;15.00;54.90;;;;;;5014501;28;20498;-57
2023/01/03 02:46:10;;;;;;;2.23;2.03;;;15.00;54.90;;;;;;5021791;28;20483;-57
2023/01/03 02:48:53;;;;;;;2.80;1.70;;;15.10;54.80;;;;;;5026958;28;20467;-57
2023/01/03 02:51:24;;;;;;;2.43;1.43;;;15.00;54.80;;;;;;5020705;28;21185;-57
2023/01/03 02:53:50;;;;;;;2.60;1.60;;;15.00;54.70;;;;;;5017960;28;20456;-57
2023/01/03 02:56:50;;;;;;;1.40;1.30;;;15.00;54.80;;;;;;5018852;28;20441;-57
2023/01/03 02:59:21;;;;;;;1.60;1.50;;;14.90;54.70;;;;;;5021142;28;20462;-58
2023/01/03 03:01:50;;;;;;;1.90;1.30;;;14.90;54.70;;;;;;5025040;28;20497;-57
2023/01/03 03:04:17;;;;;;;1.60;1.50;;;14.80;54.60;;;;;;5012009;28;20444;-58
2023/01/03 03:07:18;;;;;;;1.77;1.33;;;14.80;54.70;;;;;;5019659;28;20487;-57
2023/01/03 03:13:11;;;;;;;1.83;1.50;;;14.80;54.60;;;;;;5014689;28;20459;-57
2023/01/03 03:15:21;;;;;;;2.13;1.93;;;14.70;54.70;;;;;;5029945;28;21522;-57
2023/01/03 03:17:50;;;;;;;2.73;1.90;;;14.60;55.00;;;;;;5021809;28;20936;-57
2023/01/03 03:25:59;;;;;;;2.23;1.90;;;14.40;55.80;;;;;;5017088;28;20510;-57
2023/01/03 03:28:34;;;;;;;3.63;2.20;;;14.50;55.70;;;;;;5018428;28;20464;-57
2023/01/03 03:31:14;;;;;;;2.60;2.10;;;14.50;55.60;;;;;;5019226;28;20439;-57
2023/01/03 03:34:06;;;;;;;2.43;1.67;;;14.50;55.50;;;;;;5008816;28;20440;-57
2023/01/03 03:36:40;;;;;;;1.40;1.30;;;14.50;55.40;;;;;;5027954;28;20514;-57
2023/01/03 03:45:00;;;;;;;1.50;1.40;;;14.50;55.40;;;;;;5019749;28;20578;-57
2023/01/03 03:47:46;;;;;;;1.40;1.30;;;14.50;55.40;;;;;;5018819;28;20444;-57
2023/01/03 03:50:33;;;;;;;2.00;1.60;;;14.40;55.40;;;;;;5014779;28;20456;-56
2023/01/03 03:53:03;;;;;;;3.60;1.43;;;14.40;55.50;;;;;;5015653;28;20453;-57
2023/01/03 03:55:31;;;;;;;2.00;1.80;;;14.40;56.00;;;;;;5014646;28;20447;-57
2023/01/03 03:58:05;;;;;;;2.87;1.70;;;14.40;55.40;;;;;;5025459;28;20960;-56
2023/01/03 04:00:37;;;;;;;1.47;1.30;;;14.40;55.40;;;;;;5021016;28;20440;-56
2023/01/03 04:03:05;;;;;;;2.30;2.10;;;14.30;55.40;;;;;;5020720;28;20446;-56
2023/01/03 04:05:37;;;;;;;2.33;2.13;;;14.30;55.40;;;;;;5030423;28;20487;-56
2023/01/03 04:08:03;;;;;;;1.60;1.50;;;14.30;55.50;;;;;;5012964;28;20452;-56
2023/01/03 04:10:28;;;;;;;2.40;1.70;;;14.30;55.40;;;;;;5015011;28;20458;-56
2023/01/03 04:12:54;;;;;;;1.70;1.60;;;14.20;55.40;;;;;;5020621;28;21042;-57
2023/01/03 04:15:20;;;;;;;1.97;1.70;;;14.20;55.60;;;;;;5027630;28;20189;-56
2023/01/03 04:17:45;;;;;;;2.33;1.67;;;14.20;55.60;;;;;;5013070;28;22046;-57
2023/01/03 04:20:12;;;;;;;1.80;1.70;;;14.20;55.70;;;;;;5017764;28;20271;-56
2023/01/03 04:22:38;;;;;;;1.57;1.47;;;14.20;55.60;;;;;;5013116;28;20242;-56
2023/01/03 04:25:04;;;;;;;1.73;1.63;;;14.20;55.50;;;;;;5017302;28;20491;-56
2023/01/03 04:27:30;;;;;;;2.70;1.77;;;14.20;55.30;;;;;;5025321;28;20197;-56
2023/01/03 04:29:55;;;;;;;1.90;1.67;;;14.10;55.10;;;;;;5014192;28;20448;-57
2023/01/03 04:32:21;;;;;;;2.40;1.70;;;14.00;54.90;;;;;;5018520;28;20249;-57
2023/01/03 04:34:47;;;;;;;2.00;1.80;;;14.00;54.90;;;;;;5023507;28;20205;-57
2023/01/03 04:37:12;;;;;;;2.70;1.93;;;13.90;55.10;;;;;;5015330;28;20194;-56
2023/01/03 04:39:38;;;;;;;1.73;1.63;;;13.90;55.80;;;;;;5012073;28;20193;-57
2023/01/03 04:44:53;;;;;;;3.00;2.00;;;13.80;55.90;;;;;;5015876;28;20977;-57
2023/01/03 04:47:19;;;;;;;2.17;1.67;;;13.80;56.10;;;;;;5025053;28;20452;-56
2023/01/03 04:49:45;;;;;;;2.60;1.70;;;13.70;56.10;;;;;;5014082;28;20205;-56
2023/01/03 04:52:12;;;;;;;2.27;2.07;;;13.70;56.20;;;;;;5020615;28;20570;-56
2023/01/03 04:54:39;;;;;;;1.87;1.77;;;13.70;56.40;;;;;;5017747;28;21021;-56
2023/01/03 04:57:04;;;;;;;1.90;1.70;;;13.70;56.60;;;;;;5018149;28;21519;-56
2023/01/03 04:59:30;;;;;;;2.10;2.00;;;13.60;56.60;;;;;;5018174;28;20476;-57
2023/01/03 05:01:55;;;;;;;2.13;1.93;;;13.60;56.70;;;;;;5018644;28;20197;-56
2023/01/03 05:04:21;;;;;;;2.60;1.90;;;13.50;56.60;;;;;;5017704;28;20201;-56
2023/01/03 05:06:47;;;;;;;1.93;1.70;;;13.50;56.60;;;;;;5013807;28;20328;-57
2023/01/03 05:09:12;;;;;;;1.57;1.47;;;13.50;56.50;;;;;;5018929;28;20200;-56
2023/01/03 05:11:38;;;;;;;2.10;1.97;;;13.50;56.40;;;;;;5024730;28;20193;-56
2023/01/03 05:14:03;;;;;;;3.57;1.80;;;13.50;56.40;;;;;;5022096;28;20197;-56
2023/01/03 05:16:29;;;;;;;2.03;1.57;;;13.50;56.40;;;;;;5027855;28;20193;-57
2023/01/03 05:18:55;;;;;;;1.70;1.60;;;13.40;56.30;;;;;;5027948;28;20776;-56
2023/01/03 05:26:52;;;;;;;2.30;1.60;;;13.20;57.00;;;;;;5013731;28;20499;-57
2023/01/03 05:29:20;;;;;;;1.67;1.30;;;13.10;57.30;;;;;;5025499;28;20452;-56
2023/01/03 05:31:46;;;;;;;1.50;1.40;;;13.10;57.30;;;;;;5013143;28;20239;-57
2023/01/03 05:34:12;;;;;;;2.40;1.40;;;13.10;57.30;;;;;;5012796;28;20495;-56
2023/01/03 05:36:38;;;;;;;1.93;1.47;;;13.10;57.20;;;;;;5015279;28;20445;-56
2023/01/03 05:39:04;;;;;;;1.77;1.40;;;13.10;57.10;;;;;;5029482;28;20273;-56
2023/01/03 05:44:15;;;;;;;2.50;1.73;;;13.00;57.10;;;;;;5014915;28;21009;-57
2023/01/03 05:46:40;;;;;;;1.90;1.80;;;12.80;57.60;;;;;;5015546;28;20485;-56
2023/01/03 05:49:06;;;;;;;1.97;1.83;;;12.70;57.90;;;;;;5013584;28;20213;-56
2023/01/03 05:51:31;;;;;;;2.20;2.00;;;12.70;58.10;;;;;;5018365;28;20244;-57
2023/01/03 05:53:57;;;;;;;1.80;1.70;;;12.70;57.90;;;;;;5015543;28;20288;-56
2023/01/03 05:56:23;;;;;;;2.10;1.90;;;12.80;57.80;;;;;;5020741;28;20553;-56
2023/01/03 05:58:48;;;;;;;2.17;1.97;;;12.80;57.50;;;;;;5021517;28;20207;-56
2023/01/03 06:01:14;;;;;;;2.23;2.03;;;12.90;57.40;;;;;;5020473;28;20649;-57
2023/01/03 06:03:45;;;;;;;3.10;2.80;;;12.90;57.30;;;;;;5022383;28;20185;-56
2023/01/03 06:06:13;;;;;;;2.50;2.30;;;13.00;57.30;;;;;;5018872;28;20503;-57
2023/01/03 06:08:39;;;;;;;3.60;2.30;;;13.00;57.20;;;;;;5013809;28;20469;-57
2023/01/03 06:11:10;;;;;;;3.00;2.40;;;12.90;57.70;;;;;;5014259;28;20444;-56
2023/01/03 06:13:35;;;;;;;2.83;2.33;;;12.90;57.40;;;;;;5022751;28;20440;-56
2023/01/03 06:18:47;;;;;;;2.30;1.80;;;12.80;57.30;;;;;;5011371;28;20232;-56
2023/01/03 06:21:12;;;;;;;2.40;2.00;;;12.80;57.40;;;;;;5013176;28;20531;-58
2023/01/03 06:23:38;;;;;;;2.77;2.33;;;12.80;57.40;;;;;;5019894;28;20229;-57
2023/01/03 06:26:04;;;;;;;10.43;2.07;;;12.80;58.00;;;;;;5021552;28;20264;-57
2023/01/03 06:28:29;;;;;;;2.83;1.80;;;13.00;58.00;;;;;;5015662;28;20205;-57
2023/01/03 06:30:55;;;;;;;1.63;1.53;;;13.20;58.60;;;;;;5019189;28;20283;-57
2023/01/03 06:33:20;;;;;;;2.23;1.90;;;13.40;57.80;;;;;;5016297;28;20193;-57
2023/01/03 06:35:46;;;;;;;2.30;1.70;;;13.60;57.30;;;;;;5018855;28;20253;-57
2023/01/03 06:38:11;;;;;;;3.33;2.13;;;13.80;57.10;;;;;;5019715;28;20201;-57
2023/01/03 06:40:37;;;;;;;2.00;1.90;;;13.90;56.20;;;;;;5021880;28;20277;-57
2023/01/03 06:43:02;;;;;;;2.17;2.00;;;13.70;55.60;;;;;;5019929;28;20680;-57
2023/01/03 06:53:42;;;;;;;3.20;3.00;;;13.80;55.80;;;;;;5025431;28;20541;-57
2023/01/03 06:56:08;;;;;;;2.93;2.63;;;13.50;55.90;;;;;;5030879;28;20451;-57
2023/01/03 06:58:34;;;;;;;2.63;2.40;;;13.50;55.80;;;;;;5020687;28;20824;-57
2023/01/03 07:01:02;;;;;;;5.47;2.10;;;13.50;56.20;;;;;;5026131;28;20474;-57
2023/01/03 07:03:30;;;;;;;2.17;1.97;;;13.60;55.90;;;;;;5020945;28;20495;-57
2023/01/03 07:05:55;;;;;;;3.20;2.03;;;13.60;55.60;;;;;;5023683;28;20491;-58
2023/01/03 07:08:21;;;;;;;2.43;2.23;;;13.70;55.60;;;;;;5023404;28;20490;-57
2023/01/03 07:10:47;;;;;;;3.00;1.97;;;13.80;55.10;;;;;;5016576;28;20211;-57
2023/01/03 07:15:56;;;;;;;2.23;2.10;;;13.90;54.50;;;;;;5018763;28;20208;-57
2023/01/03 07:18:22;;;;;;;3.50;2.47;;;13.90;54.30;;;;;;5026076;28;20807;-57
2023/01/03 07:20:48;;;;;;;2.70;2.47;;;13.90;54.40;;;;;;5025153;28;20239;-57
2023/01/03 07:23:13;;;;;;;5.10;2.40;;;13.90;54.40;;;;;;5025616;28;20237;-57
2023/01/03 07:25:42;;;;;;;2.43;2.23;;;13.90;54.60;;;;;;5017471;28;20261;-57
2023/01/03 07:28:12;;;;;;;3.93;2.93;;;13.80;54.40;;;;;;5024708;28;20669;-57
2023/01/03 07:30:44;;;;;;;3.40;2.63;;;13.70;54.80;;;;;;5020817;28;21827;-57
2023/01/03 07:33:11;;;;;;;3.33;2.80;;;13.70;54.80;;;;;;5027357;28;20444;-57
2023/01/03 07:35:37;;;;;;;3.53;2.57;;;13.60;55.10;;;;;;5022555;28;20523;-58
2023/01/03 07:38:04;;;;;;;4.57;2.80;;;13.70;55.20;;;;;;5029712;28;21251;-57
2023/01/03 07:40:30;;;;;;;4.10;2.63;;;13.60;54.70;;;;;;5028759;28;20201;-57
2023/01/03 07:45:44;;;;;;;3.27;2.67;;;13.60;54.50;;;;;;5029260;28;20498;-57
2023/01/03 07:48:11;;;;;;;2.27;2.07;;;13.60;54.70;;;;;;5028735;28;20436;-57
2023/01/03 07:50:37;;;;;;;3.77;2.70;;;13.60;55.00;;;;;;5032075;28;20442;-57
2023/01/03 07:53:04;;;;;;;2.63;2.33;;;13.60;54.60;;;;;;5028946;28;20447;-57
2023/01/03 07:55:32;;;;;;;6.50;3.07;;;13.60;54.80;;;;;;5030493;28;20936;-57
2023/01/03 07:57:58;;;;;;;3.10;2.77;;;13.50;55.20;;;;;;5029313;28;20452;-57
2023/01/03 08:00:24;;;;;;;3.83;2.67;;;13.60;55.40;;;;;;5032736;28;20932;-57
2023/01/03 08:02:53;;;;;;;6.73;2.80;;;13.60;55.50;;;;;;5024770;28;20312;-57
2023/01/03 08:05:20;;;;;;;3.93;2.87;;;13.70;55.30;;;;;;5028525;28;20592;-57
2023/01/03 08:07:47;;;;;;;3.57;2.90;;;13.80;55.00;;;;;;5025645;28;20463;-57
2023/01/03 08:13:16;;;;;;;4.13;2.83;;;13.90;54.50;;;;;;5020837;28;20477;-57
2023/01/03 08:15:48;;;;;;;2.80;2.60;;;13.80;54.70;;;;;;5026281;28;20432;-57
2023/01/03 08:18:21;;;;;;;3.90;3.03;;;13.90;54.80;;;;;;5025007;28;20555;-57
2023/01/03 08:20:47;;;;;;;3.53;2.97;;;13.90;55.00;;;;;;5023092;28;20931;-57
2023/01/03 08:23:13;;;;;;;2.80;2.50;;;13.90;54.80;;;;;;5032434;28;20471;-57
2023/01/03 08:25:38;;;;;;;3.30;3.00;;;13.90;54.80;;;;;;5018001;28;20308;-58
2023/01/03 08:28:06;;;;;;;3.70;3.23;;;14.00;54.80;;;;;;5023434;28;20197;-58
2023/01/03 08:30:37;;;;;;;2.47;2.27;;;14.00;55.00;;;;;;5019673;28;20997;-58
2023/01/03 08:33:03;;;;;;;2.90;2.60;;;14.10;55.30;;;;;;5019533;28;20432;-58
2023/01/03 08:35:33;;;;;;;3.40;2.80;;;14.10;55.20;;;;;;5018640;28;20444;-58
2023/01/03 08:38:01;;;;;;;3.63;2.67;;;14.00;55.10;;;;;;5030187;28;20475;-58
2023/01/03 08:40:29;;;;;;;3.80;2.60;;;13.80;55.70;;;;;;5029113;28;20475;-58
2023/01/03 08:42:54;;;;;;;3.47;2.70;;;13.70;56.00;;;;;;5027659;28;20448;-58
2023/01/03 08:45:20;;;;;;;3.00;2.67;;;13.80;56.00;;;;;;5022828;28;20817;-58
2023/01/03 08:47:46;;;;;;;4.97;3.37;;;13.80;55.80;;;;;;5022432;28;20208;-58
2023/01/03 08:50:13;;;;;;;4.60;3.63;;;13.70;55.90;;;;;;5027493;28;20447;-58
2023/01/03 08:52:38;;;;;;;5.60;3.93;;;13.60;56.40;;;;;;5022946;28;20502;-58
2023/01/03 08:55:04;;;;;;;8.77;4.50;;;13.70;56.40;;;;;;5018892;28;20804;-58
2023/01/03 08:57:30;;;;;;;5.37;4.50;;;13.70;56.30;;;;;;5021411;28;20196;-58
2023/01/03 08:59:56;;;;;;;6.77;3.83;;;13.70;56.00;;;;;;5026316;28;20457;-58
2023/01/03 09:02:22;;;;;;;8.80;4.30;;;13.80;56.30;;;;;;5021578;28;20448;-58
2023/01/03 09:04:47;;;;;;;4.23;3.50;;;13.80;56.10;;;;;;5020460;28;20232;-56
2023/01/03 09:07:13;;;;;;;4.73;3.43;;;13.70;56.40;;;;;;5021020;28;20190;-57
2023/01/03 09:09:38;;;;;;;3.73;3.43;;;13.80;56.50;;;;;;5018696;28;20561;-60
2023/01/03 09:12:04;;;;;;;5.27;3.37;;;13.80;56.50;;;;;;5018089;28;20185;-56
2023/01/03 09:14:30;;;;;;;5.23;3.00;;;13.90;56.60;;;;;;5006670;28;20202;-57
2023/01/03 09:16:56;;;;;;;3.73;2.83;;;13.60;56.90;;;;;;5023531;28;20189;-58
2023/01/03 09:19:22;;;;;;;3.87;2.70;;;13.70;57.40;;;;;;5016356;28;20855;-58
2023/01/03 09:21:47;;;;;;;3.17;2.87;;;13.80;57.30;;;;;;5021903;28;20633;-57
2023/01/03 09:24:13;;;;;;;3.83;3.40;;;14.00;56.80;;;;;;5018845;28;20220;-58
2023/01/03 09:26:39;;;;;;;2.97;2.77;;;14.00;56.60;;;;;;5017085;28;20221;-57
2023/01/03 09:29:05;;;;;;;3.00;2.70;;;14.00;56.70;;;;;;5012674;28;20490;-58
2023/01/03 09:31:33;;;;;;;3.93;2.87;;;14.00;56.60;;;;;;5019253;28;20189;-57
2023/01/03 09:33:59;;;;;;;7.00;2.50;;;14.00;56.40;;;;;;5013891;28;20201;-56
2023/01/03 09:36:25;;;;;;;4.90;2.80;;;14.00;57.60;;;;;;5020152;28;20439;-56
2023/01/03 09:38:50;;;;;;;4.00;3.00;;;14.10;57.70;;;;;;5018890;28;20486;-56
2023/01/03 09:41:25;;;;;;;3.20;2.60;;;14.20;57.40;;;;;;5016544;28;20197;-56
2023/01/03 09:43:57;;;;;;;3.67;2.83;;;14.30;56.40;;;;;;5016740;28;20280;-56
2023/01/03 09:46:25;;;;;;;3.13;2.40;;;14.20;56.70;;;;;;5015802;28;20496;-57
2023/01/03 09:48:52;;;;;;;5.20;3.07;;;14.20;56.50;;;;;;5012578;28;20449;-56
2023/01/03 10:03:44;;;;;;;3.40;3.10;;;14.70;56.20;;;;;;5018696;28;20933;-58
2023/01/03 10:06:16;;;;;;;6.97;3.63;;;14.90;55.90;;;;;;5014926;28;20537;-58
2023/01/03 10:08:51;;;;;;;4.43;2.93;;;15.10;55.50;;;;;;5015587;28;20441;-58
2023/01/03 10:11:44;;;;;;;2.93;2.73;;;15.20;55.20;;;;;;5009928;28;20570;-58
2023/01/03 10:14:37;;;;;;;4.20;2.90;;;15.20;54.80;;;;;;5012214;28;20532;-58
2023/01/03 10:17:12;;;;;;;3.77;2.67;;;15.20;54.60;;;;;;5016338;28;20926;-58
2023/01/03 10:20:09;;;;;;;3.00;2.40;;;15.20;55.20;;;;;;5022960;28;20473;-57
2023/01/03 10:22:36;;;;;;;3.33;2.77;;;15.20;55.00;;;;;;5018095;28;20484;-56
2023/01/03 10:25:10;;;;;;;3.07;2.50;;;15.20;55.00;;;;;;5016694;28;20448;-57
2023/01/03 10:27:57;;;;;;;5.77;2.20;;;15.20;55.30;;;;;;5016410;28;20453;-57
2023/01/03 10:30:30;;;;;;;2.97;2.53;;;15.50;55.60;;;;;;5017327;28;20924;-58
2023/01/03 10:33:22;;;;;;;3.93;2.80;;;15.60;54.80;;;;;;5017634;28;20879;-58
2023/01/03 10:35:48;;;;;;;3.40;3.10;;;15.80;54.50;;;;;;5023275;28;20468;-57
2023/01/03 10:38:15;;;;;;;4.00;2.90;;;15.90;54.10;;;;;;5033132;28;20444;-58
2023/01/03 10:40:44;;;;;;;2.50;2.30;;;15.90;53.50;;;;;;5030861;28;20197;-58
2023/01/03 10:43:19;;;;;;;2.57;2.37;;;15.90;53.50;;;;;;5029503;28;20463;-57
2023/01/03 10:45:56;;;;;;;2.50;2.30;;;15.90;53.60;;;;;;5029594;28;20564;-56
2023/01/03 10:48:22;;;;;;;3.00;2.80;;;15.90;53.50;;;;;;5032095;28;20505;-57
2023/01/03 10:50:49;;;;;;;4.33;2.57;;;16.00;53.40;;;;;;5018930;28;20452;-57
2023/01/03 10:53:18;;;;;;;3.23;2.93;;;16.10;53.50;;;;;;5015561;28;20448;-58
2023/01/03 10:55:48;;;;;;;3.80;3.50;;;16.10;53.40;;;;;;5024922;28;20456;-57
2023/01/03 10:58:20;;;;;;;5.00;4.60;;;16.10;53.50;;;;;;5024051;28;20493;-57
2023/01/03 11:00:45;;;;;;;4.33;3.40;;;16.30;53.40;;;;;;5026419;28;21158;-58
2023/01/03 11:03:13;;;;;;;3.63;3.33;;;16.60;52.80;;;;;;5019126;28;20523;-57
2023/01/03 11:05:41;;;;;;;4.43;3.50;;;16.90;51.90;;;;;;5020687;28;20286;-58
2023/01/03 11:08:22;;;;;;;4.60;3.03;;;17.10;51.10;;;;;;5015426;28;20453;-58
2023/01/03 11:10:58;;;;;;;3.27;2.97;;;17.60;50.60;;;;;;5030974;28;20472;-57
2023/01/03 11:13:37;;;;;;;4.70;2.77;;;17.80;49.70;;;;;;5028701;28;20444;-57
2023/01/03 11:16:15;;;;;;;11.30;2.77;;;18.40;48.40;;;;;;5020473;28;20898;-58
2023/01/03 11:18:42;;;;;;;3.03;2.70;;;18.80;48.10;;;;;;5022560;28;20440;-58
2023/01/03 11:21:17;;;;;;;7.87;3.13;;;18.90;47.50;;;;;;5024169;28;20448;-57
2023/01/03 11:23:52;;;;;;;2.20;2.10;;;18.90;47.30;;;;;;5023324;28;21035;-57
2023/01/03 11:26:30;;;;;;;2.60;2.40;;;18.90;47.10;;;;;;5026840;28;20483;-58
2023/01/03 11:29:26;;;;;;;3.23;2.80;;;18.80;47.50;;;;;;5028935;28;20454;-57
2023/01/03 11:32:14;;;;;;;2.30;2.10;;;18.80;47.40;;;;;;5030091;28;20847;-57
2023/01/03 11:35:01;;;;;;;2.53;2.30;;;18.70;47.30;;;;;;5026292;28;20535;-57
2023/01/03 11:37:48;;;;;;;2.23;2.03;;;18.50;47.30;;;;;;5019847;28;20460;-57
2023/01/03 11:40:38;;;;;;;4.73;2.50;;;18.30;47.70;;;;;;5012744;28;20455;-57
2023/01/03 11:43:26;;;;;;;3.10;2.90;;;18.20;48.30;;;;;;5027904;28;21081;-57
2023/01/03 11:46:10;;;;;;;2.50;2.30;;;18.20;48.00;;;;;;5019436;28;20483;-57
2023/01/03 11:48:51;;;;;;;2.83;2.00;;;18.20;47.70;;;;;;5017581;28;20505;-57
2023/01/03 11:51:27;;;;;;;3.60;2.13;;;18.10;47.40;;;;;;5023121;28;20456;-57
2023/01/03 11:54:08;;;;;;;1.83;1.73;;;18.00;47.80;;;;;;5023791;28;20447;-57
2023/01/03 11:56:38;;;;;;;2.43;1.93;;;17.90;48.00;;;;;;5021043;28;20448;-57
2023/01/03 11:59:40;;;;;;;2.53;2.10;;;18.10;47.00;;;;;;5026072;28;22426;-57
2023/01/03 12:02:50;;;;;;;2.40;2.13;;;18.10;47.30;;;;;;5025795;28;20491;-58
2023/01/03 12:05:38;;;;;;;4.60;1.60;;;18.10;47.20;;;;;;5026452;28;20476;-58
2023/01/03 12:08:20;;;;;;;2.37;2.23;;;18.20;46.70;;;;;;5017759;28;21101;-57
2023/01/03 12:10:51;;;;;;;2.07;1.30;;;18.30;46.50;;;;;;5022737;28;21079;-58
2023/01/03 12:13:20;;;;;;;1.43;1.33;;;18.30;45.80;;;;;;5027704;28;20531;-58
2023/01/03 12:15:57;;;;;;;1.50;1.40;;;18.40;46.10;;;;;;5026073;28;20987;-58
2023/01/03 12:19:01;;;;;;;2.40;1.70;;;18.50;45.20;;;;;;5022214;28;20440;-57
2023/01/03 12:21:39;;;;;;;2.00;1.80;;;18.70;44.50;;;;;;5029272;28;20875;-57
2023/01/03 12:24:29;;;;;;;1.60;1.50;;;18.60;44.10;;;;;;5019864;28;20515;-58
2023/01/03 12:27:01;;;;;;;1.77;1.67;;;18.50;44.60;;;;;;5020149;28;20492;-57
2023/01/03 12:29:33;;;;;;;1.60;1.50;;;18.60;44.30;;;;;;5025157;28;20462;-58
2023/01/03 12:32:17;;;;;;;4.27;2.07;;;18.50;44.30;;;;;;5017155;28;20452;-58
2023/01/03 12:34:47;;;;;;;3.00;1.80;;;18.40;44.70;;;;;;5021138;28;20455;-58
2023/01/03 12:37:23;;;;;;;3.10;1.90;;;18.50;45.00;;;;;;5016208;28;20448;-57
2023/01/03 12:39:55;;;;;;;2.17;1.70;;;18.80;47.10;;;;;;5028437;28;20438;-58
2023/01/03 12:42:37;;;;;;;2.60;1.40;;;19.10;46.20;;;;;;5021523;28;20462;-58
2023/01/03 12:45:22;;;;;;;2.07;1.60;;;19.50;44.10;;;;;;5031224;28;20423;-57
2023/01/03 12:48:17;;;;;;;2.00;1.67;;;19.60;43.20;;;;;;5002583;28;20469;-57
2023/01/03 12:50:47;;;;;;;1.97;1.70;;;19.60;42.70;;;;;;5027550;28;20481;-57
2023/01/03 12:53:34;;;;;;;1.90;1.53;;;19.60;42.50;;;;;;5023467;28;23155;-57
2023/01/03 12:56:42;;;;;;;3.13;1.97;;;19.70;43.00;;;;;;5017284;28;20445;-57
2023/01/03 12:59:38;;;;;;;1.70;1.60;;;19.80;42.50;;;;;;5013422;28;20539;-58
2023/01/03 13:02:27;;;;;;;1.40;1.30;;;19.90;42.60;;;;;;5023778;28;20454;-56
2023/01/03 13:05:02;;;;;;;2.00;1.70;;;20.00;42.50;;;;;;5025137;28;20452;-56
2023/01/03 13:07:30;;;;;;;2.50;1.80;;;20.00;42.00;;;;;;5016545;28;20878;-56
2023/01/03 13:10:05;;;;;;;2.40;1.50;;;19.90;41.60;;;;;;5025396;28;20439;-56
2023/01/03 13:12:34;;;;;;;2.73;1.53;;;19.80;41.80;;;;;;5018335;28;20464;-56
2023/01/03 13:15:02;;;;;;;2.10;1.37;;;19.90;42.20;;;;;;5026941;28;20462;-56
2023/01/03 13:17:30;;;;;;;1.70;1.60;;;20.00;42.00;;;;;;5027074;28;20462;-56
2023/01/03 13:20:13;;;;;;;1.93;1.43;;;20.00;41.70;;;;;;5025807;28;20873;-56
2023/01/03 13:22:54;;;;;;;1.73;1.63;;;20.00;41.90;;;;;;5017570;28;20558;-56
2023/01/03 13:25:26;;;;;;;2.43;1.63;;;20.00;42.00;;;;;;5028654;28;20483;-56
2023/01/03 13:27:52;;;;;;;2.23;1.40;;;20.00;42.10;;;;;;5027690;28;20500;-55
2023/01/03 13:30:21;;;;;;;3.80;1.60;;;20.00;41.80;;;;;;5027220;28;20542;-54
2023/01/03 13:32:53;;;;;;;2.50;1.57;;;20.00;42.00;;;;;;5022769;28;20437;-55
2023/01/03 13:35:29;;;;;;;2.97;2.07;;;20.00;41.90;;;;;;5026040;28;21045;-56
2023/01/03 13:37:58;;;;;;;1.93;1.60;;;20.10;41.80;;;;;;5024995;28;20459;-55
2023/01/03 13:40:28;;;;;;;2.30;1.73;;;20.10;41.70;;;;;;5022551;28;20519;-56
2023/01/03 13:43:06;;;;;;;3.30;1.70;;;20.00;41.70;;;;;;5027711;28;20448;-56
2023/01/03 13:45:32;;;;;;;2.13;1.60;;;19.90;41.70;;;;;;5021264;28;20544;-56
2023/01/03 13:48:08;;;;;;;1.20;1.10;;;19.90;42.00;;;;;;5027106;28;20444;-55
2023/01/03 13:50:35;;;;;;;1.93;1.60;;;19.90;42.10;;;;;;5025859;28;20200;-55
2023/01/03 13:53:08;;;;;;;2.27;1.30;;;19.80;41.80;;;;;;5028001;28;20452;-55
2023/01/03 13:55:38;;;;;;;1.77;1.67;;;19.70;42.20;;;;;;5019231;28;20540;-56
2023/01/03 13:58:26;;;;;;;2.23;1.17;;;19.70;42.50;;;;;;5011292;28;20459;-56
2023/01/03 14:00:54;;;;;;;1.43;1.33;;;19.70;42.70;;;;;;5022078;28;20446;-56
2023/01/03 14:03:50;;;;;;;1.33;1.23;;;19.60;42.40;;;;;;5021041;28;20555;-56
2023/01/03 14:06:43;;;;;;;1.53;1.43;;;19.70;42.50;;;;;;5019746;28;20923;-56
2023/01/03 14:09:24;;;;;;;2.03;1.83;;;19.70;42.40;;;;;;5036596;28;20866;-56
2023/01/03 14:11:53;;;;;;;2.50;1.70;;;19.60;42.40;;;;;;5015518;28;20463;-56